Catàleg de serveis del Meteocat
Campanya meteocatpedra

Dades de l'estació automàtica l'Aldea

?
?
Resum diari 22:30 TU
Dades diàries de l'estació meteorològica
Temperatura mitjana 11.8 °C
Temperatura màxima 16.0 °C 14:51 TU
Temperatura mínima 7.5 °C 22:33 TU
Humitat relativa mitjana 74%
Precipitació acumulada 5.3 mm
Ratxa màxima del vent (2 m) 33.8 km/h - 315º 13:22 TU
Irradiació solar global 7.8 MJ/m2

El tram horari està expressat en Temps Universal (TU). Cal sumar una hora en horari d'hivern i dues en horari d'estiu per passar a l'hora oficial.

l'Aldea

Metadades estació meteorol´gica
Municipi L'Aldea
Comarca Baix Ebre
Altitud 62 m
Data alta 03.06.1991
Estat actual Operativa
Dades de període
Període
TU
TM
°C
TX
°C
TN
°C
HRM
%
PPT
mm
VVM (2 m)
km/h
DVM (2 m)
graus
VVX (2 m)
km/h
RS
W/m2
00:00 - 00:30 13.9 14.0 13.7 51 0.0 4.3 310 14.0 0
00:30 - 01:00 12.8 13.7 11.8 56 0.0 0.7 275 3.6 0
01:00 - 01:30 11.8 11.8 11.7 61 0.0 0.7 303 3.2 0
01:30 - 02:00 11.0 11.7 10.5 66 0.0 0.7 314 2.5 0
02:00 - 02:30 10.8 11.1 10.5 67 0.0 1.4 320 5.4 0
02:30 - 03:00 11.2 11.4 11.1 66 0.0 1.4 321 4.7 0
03:00 - 03:30 11.6 11.7 11.4 65 0.0 1.4 310 6.5 0
03:30 - 04:00 11.7 11.8 11.6 65 0.0 1.4 316 4.7 0
04:00 - 04:30 12.1 12.2 11.8 62 0.0 1.4 322 5.0 0
04:30 - 05:00 12.2 12.3 11.9 61 0.0 0.7 316 3.2 0
05:00 - 05:30 11.3 11.8 10.7 75 0.1 1.1 329 4.3 0
05:30 - 06:00 10.4 10.6 10.3 90 0.5 2.5 355 6.8 0
06:00 - 06:30 10.2 10.3 9.9 94 0.5 1.1 252 4.0 0
06:30 - 07:00 9.8 9.9 9.8 96 0.7 1.1 306 4.0 0
07:00 - 07:30 10.0 10.2 9.8 97 0.7 1.1 311 5.4 5
07:30 - 08:00 10.4 10.5 10.3 97 0.3 1.1 320 5.0 15
08:00 - 08:30 10.7 10.9 10.5 97 0.3 1.8 323 5.0 32
08:30 - 09:00 11.1 11.2 10.9 97 0.6 0.7 320 5.0 57
09:00 - 09:30 11.0 11.1 11.0 96 1.1 2.9 319 8.6 43
09:30 - 10:00 11.3 11.4 11.0 93 0.5 5.4 334 17.6 106
10:00 - 10:30 11.4 11.8 11.3 89 0.0 6.5 338 18.0 222
10:30 - 11:00 12.0 12.3 11.8 85 0.0 7.2 338 19.1 359
11:00 - 11:30 12.4 12.6 12.2 80 0.0 8.3 322 21.2 178
11:30 - 12:00 13.1 13.5 12.5 76 0.0 8.3 318 31.0 470
12:00 - 12:30 13.7 14.0 13.3 71 0.0 10.4 321 31.7 544
12:30 - 13:00 14.1 14.4 13.9 69 0.0 7.9 330 20.5 525
13:00 - 13:30 14.5 14.7 14.2 65 0.0 9.7 316 33.8 480
13:30 - 14:00 14.9 15.1 14.7 64 0.0 11.2 311 29.2 427
14:00 - 14:30 15.3 15.8 15.0 64 0.0 7.6 306 23.8 333
14:30 - 15:00 15.9 16.0 15.8 60 0.0 6.8 304 25.9 287
15:00 - 15:30 15.8 16.0 15.6 54 0.0 10.8 303 33.1 209
15:30 - 16:00 15.3 15.6 15.0 55 0.0 11.5 301 30.6 83
16:00 - 16:30 14.9 15.1 14.6 55 0.0 11.2 286 28.4 16
16:30 - 17:00 14.3 14.6 14.0 55 0.0 9.4 288 23.0 2
17:00 - 17:30 14.0 14.1 13.8 53 0.0 7.6 290 22.3 0
17:30 - 18:00 13.5 13.8 12.9 54 0.0 3.2 304 9.7 0
18:00 - 18:30 11.0 12.8 9.7 68 0.0 0.7 288 3.2 0
18:30 - 19:00 9.3 9.6 8.8 78 0.0 1.1 317 4.7 0
19:00 - 19:30 8.9 9.2 8.6 81 0.0 1.4 313 4.3 0
19:30 - 20:00 8.6 9.6 8.4 84 0.0 1.4 311 4.3 0
20:00 - 20:30 10.6 11.2 9.6 71 0.0 1.1 312 8.6 0
20:30 - 21:00 9.5 9.8 9.1 78 0.0 1.1 329 4.0 0
21:00 - 21:30 9.2 9.5 9.0 80 0.0 1.8 286 4.7 0
21:30 - 22:00 9.0 9.2 8.7 81 0.0 2.2 305 6.5 0
22:00 - 22:30 8.6 9.1 7.6 82 0.0 0.7 55 4.0 0
22:30 - 23:00 8.1 9.0 7.5 86 0.0 2.5 317 7.6 0

Les dades en taronja només han passat un control de qualitat automàtic. Resta pendent la seva validació definitiva.